Latest Weather Observations for Willis Island

IDQ60801

Issued at 9:32 am EST Sunday 7 February 2016 (issued every 30 minutes, with the page automatically refreshed every 10 minutes)

About weather observations | Map of weather stations | Latest weather observations for QLD | Other Formats
Station Details ID: 200283 Name: WILLIS ISLAND Lat: -16.29 Lon: 149.97 Height: 9.29 m
Data from the previous 72 hours. | See also: Recent months at Willis Island
Date/Time
EST
Temp
°C
App
Temp
°C
Dew
Point
Rel
Hum
%
Delta-T
°C
Wind Press
QNH
hPa
Press
MSL
hPa
Rain
since 9 am
mm
Dir
 
Spd
km/h
Gust
km/h
Spd
kts
Gust
kts
07/09:30am 31.8 35.8 27.0 76 3.5 NW 20 26 11 14 1008.1 1008.0 0.0
07/09:00am 31.7 34.7 26.7 75 3.6 WNW 24 30 13 16 1007.9 1007.8 0.6
07/08:30am 30.7 34.1 26.7 79 2.9 NW 22 28 12 15 1007.6 1007.5 0.6
07/08:00am 29.9 32.6 26.3 81 2.6 NW 24 30 13 16 1007.3 1007.2 0.6
07/07:30am 29.7 33.0 26.6 83 2.2 NW 22 26 12 14 1007.2 1007.1 0.6
07/07:00am 29.6 32.6 26.2 82 2.4 NW 22 30 12 16 1006.7 1006.6 0.6
07/06:30am 29.9 33.2 26.6 82 2.4 NNW 22 26 12 14 1006.2 1006.1 0.6
07/06:00am 29.4 33.2 26.5 84 2.1 NW 19 22 10 12 1005.8 1005.7 0.6
07/05:30am 29.4 32.9 26.3 83 2.2 WNW 20 24 11 13 1005.4 1005.3 0.6
07/05:00am 29.4 33.1 26.6 85 2.0 WNW 20 24 11 13 1005.4 1005.3 0.6
07/04:30am 29.5 33.4 26.6 84 2.1 WNW 19 22 10 12 1005.3 1005.2 0.6
07/04:00am 29.5 33.1 26.4 83 2.2 WNW 20 26 11 14 1005.4 1005.3 0.6
07/03:30am 29.5 32.2 26.3 83 2.3 NW 24 30 13 16 1005.4 1005.3 0.6
07/03:00am 29.6 33.2 26.4 83 2.3 NW 20 28 11 15 1005.2 1005.1 0.6
07/02:30am 29.6 32.8 26.5 83 2.2 WNW 22 26 12 14 1005.4 1005.3 0.6
07/02:00am 29.5 33.5 27.0 86 1.8 WNW 20 26 11 14 1005.6 1005.5 0.6
07/01:30am 29.6 33.4 26.7 84 2.1 WNW 20 26 11 14 1005.8 1005.7 0.6
07/01:00am 29.7 32.9 26.5 83 2.3 WNW 22 28 12 15 1006.1 1006.0 0.6
07/12:30am 29.6 33.8 27.0 86 1.9 NW 19 24 10 13 1006.4 1006.3 0.6
07/12:00am 29.7 33.2 26.8 84 2.1 NW 22 28 12 15 1006.8 1006.7 0.6
 
Date/Time
EST
Temp
°C
App
Temp
°C
Dew
Point
Rel
Hum
%
Delta-T
°C
Wind Press
QNH
hPa
Press
MSL
hPa
Rain
since 9 am
mm
Dir
 
Spd
km/h
Gust
km/h
Spd
kts
Gust
kts
06/11:30pm 29.7 33.4 26.6 83 2.2 NW 20 26 11 14 1007.0 1006.9 0.6
06/11:00pm 29.7 33.2 26.9 85 2.0 NW 22 28 12 15 1007.3 1007.2 0.6
06/10:30pm 29.8 32.4 26.6 83 2.3 NW 26 32 14 17 1007.2 1007.1 0.6
06/10:00pm 29.8 33.8 27.0 85 2.0 NW 20 26 11 14 1007.3 1007.2 0.6
06/09:30pm 29.8 32.4 26.6 83 2.3 WNW 26 32 14 17 1006.9 1006.8 0.6
06/09:00pm 29.8 32.0 26.6 83 2.3 NW 28 33 15 18 1006.4 1006.3 0.6
06/08:30pm 29.8 33.3 26.9 84 2.1 NW 22 28 12 15 1006.1 1006.0 0.6
06/08:00pm 29.7 32.4 26.8 84 2.1 NW 26 32 14 17 1005.9 1005.8 0.6
06/07:30pm 29.8 32.5 26.3 81 2.5 NW 24 32 13 17 1005.4 1005.3 0.6
06/07:00pm 29.8 32.7 26.6 83 2.3 NW 24 32 13 17 1004.8 1004.7 0.6
06/06:30pm 29.8 32.5 26.3 81 2.5 NNW 24 30 13 16 1004.3 1004.2 0.6
06/06:00pm 30.0 33.2 26.5 81 2.5 NW 22 28 12 15 1003.9 1003.8 0.6
06/05:30pm 30.5 33.7 26.5 79 2.9 NW 22 30 12 16 1003.7 1003.6 0.6
06/05:00pm 30.8 35.4 27.1 80 2.7 NW 17 22 9 12 1003.4 1003.3 0.6
06/04:30pm 30.9 35.2 26.6 78 3.1 NW 17 22 9 12 1003.2 1003.1 0.6
06/04:00pm 31.7 35.8 27.2 77 3.3 NW 20 26 11 14 1003.1 1003.0 0.6
06/03:30pm 32.0 35.0 26.7 73 3.8 NW 24 30 13 16 1003.1 1003.0 0.6
06/03:00pm 31.0 33.8 26.4 76 3.3 NW 24 32 13 17 1003.4 1003.3 0.6
06/02:30pm 32.5 34.2 26.5 70 4.3 NNW 30 37 16 20 1003.6 1003.5 0.6
06/02:00pm 33.3 35.4 27.0 69 4.6 NNW 30 35 16 19 1004.0 1003.9 0.6
06/01:30pm 32.8 35.0 26.7 70 4.4 NNW 28 33 15 18 1004.3 1004.2 0.6
06/01:00pm 32.5 35.6 26.8 72 4.1 NNW 24 32 13 17 1004.6 1004.5 0.6
06/12:30pm 32.7 35.5 27.0 72 4.1 NNW 26 30 14 16 1005.0 1004.9 0.6
06/12:00pm 33.0 35.6 26.6 69 4.6 NNW 26 33 14 18 1005.3 1005.2 0.6
06/11:30am 30.6 32.6 26.4 78 3.0 NNW 28 33 15 18 1005.7 1005.6 0.6
06/11:00am 28.6 29.7 25.0 81 2.5 NNW 28 41 15 22 1006.0 1005.9 0.4
06/10:30am 32.2 35.1 27.1 74 3.7 NNW 26 30 14 16 1006.0 1005.9 0.2
06/10:00am 31.3 36.3 27.7 81 2.6 NNW 17 26 9 14 1006.1 1006.0 0.2
06/09:30am 31.3 34.0 26.3 75 3.6 NNW 24 30 13 16 1005.9 1005.8 0.0
06/09:00am 31.3 33.3 26.4 75 3.5 N 28 33 15 18 1006.0 1005.9 1.0
06/08:30am 31.3 33.5 26.7 76 3.3 NNW 28 33 15 18 1005.6 1005.5 1.0
06/08:00am 30.5 31.5 26.2 78 3.1 NNW 33 39 18 21 1005.4 1005.3 1.0
06/07:30am 29.9 31.7 26.6 82 2.4 N 30 35 16 19 1005.0 1004.9 1.0
06/07:00am 29.6 31.5 26.2 82 2.4 NNW 28 35 15 19 1004.9 1004.8 1.0
06/06:30am 29.6 32.1 26.5 83 2.2 NNW 26 30 14 16 1004.7 1004.6 1.0
06/06:00am 29.3 32.1 26.4 84 2.1 N 24 28 13 15 1004.0 1003.9 1.0
06/05:30am 29.3 32.5 26.5 85 2.0 NNW 22 24 12 13 1003.8 1003.7 1.0
06/05:00am 29.4 32.1 26.3 83 2.2 NNW 24 28 13 15 1003.4 1003.3 1.0
06/04:30am 29.3 32.5 26.4 84 2.1 NNW 22 28 12 15 1002.9 1002.8 1.0
06/04:00am 29.5 31.7 26.1 82 2.4 NNW 26 32 14 17 1002.8 1002.7 1.0
06/03:30am 29.3 30.6 26.4 84 2.1 NNW 32 35 17 19 1002.6 1002.5 1.0
06/03:00am 29.3 31.7 26.9 87 1.7 N 28 33 15 18 1002.7 1002.6 1.0
06/02:30am 29.2 31.9 26.8 87 1.7 NNW 26 32 14 17 1002.8 1002.7 1.0
06/02:00am 29.2 31.8 26.7 86 1.8 NNW 26 32 14 17 1002.9 1002.8 1.0
06/01:30am 29.5 31.5 26.4 83 2.2 NNW 28 32 15 17 1003.4 1003.3 1.0
06/01:00am 29.5 31.5 26.3 83 2.3 NW 28 32 15 17 1003.7 1003.6 1.0
06/12:30am 29.5 31.7 26.1 82 2.4 NW 26 33 14 18 1004.4 1004.3 1.0
06/12:00am 29.5 31.9 26.4 83 2.2 NW 26 32 14 17 1005.0 1004.9 1.0
 
Date/Time
EST
Temp
°C
App
Temp
°C
Dew
Point
Rel
Hum
%
Delta-T
°C
Wind Press
QNH
hPa
Press
MSL
hPa
Rain
since 9 am
mm
Dir
 
Spd
km/h
Gust
km/h
Spd
kts
Gust
kts
05/11:30pm 29.4 32.0 26.6 85 2.0 NW 26 32 14 17 1005.4 1005.3 1.0
05/11:00pm 29.4 32.5 26.8 86 1.9 NW 24 30 13 16 1005.6 1005.5 1.0
05/10:30pm 29.5 31.7 26.6 84 2.1 NW 28 32 15 17 1005.8 1005.7 1.0
05/10:00pm 29.5 33.3 26.7 85 2.0 NW 20 24 11 13 1005.7 1005.6 1.0
05/09:30pm 29.2 32.8 27.0 88 1.6 NNW 22 28 12 15 1005.7 1005.6 1.0
05/09:00pm 29.1 31.2 27.0 88 1.5 NNW 30 35 16 19 1005.4 1005.3 1.0
05/08:30pm 29.2 30.4 27.1 88 1.5 NNW 35 41 19 22 1005.2 1005.1 1.0
05/08:24pm 29.3 31.9 27.2 88 1.5 NNW 28 39 15 21 1005.0 1004.9 1.0
05/08:00pm 28.4 34.7 26.0 87 1.7 ESE 4 7 2 4 1004.7 1004.6 1.0
05/07:30pm 28.2 33.1 25.9 87 1.6 NW 11 13 6 7 1004.1 1004.0 1.0
05/07:00pm 28.0 33.1 26.2 90 1.3 WSW 11 19 6 10 1003.9 1003.8 1.0
05/06:30pm 27.5 29.0 26.2 93 0.9 SW 30 37 16 20 1004.4 1004.3 0.8
05/06:21pm 28.2 29.9 26.4 90 1.3 NW 30 43 16 23 1004.4 1004.3 0.2
05/06:19pm 28.2 30.1 26.2 89 1.4 NNW 28 41 15 22 1004.5 1004.4 0.0
05/06:00pm 30.2 35.9 27.0 83 2.3 WNW 11 20 6 11 1004.2 1004.1 0.0
05/05:30pm 29.7 32.6 24.4 73 3.7 WNW 17 26 9 14 1004.1 1004.0 0.0
05/05:00pm 30.2 35.4 26.9 82 2.4 NW 13 19 7 10 1003.7 1003.6 0.0
05/04:30pm 30.3 35.0 26.1 78 3.0 W 13 15 7 8 1003.6 1003.5 0.0
05/04:00pm 30.3 34.2 26.1 78 3.0 W 17 20 9 11 1003.2 1003.1 0.0
05/03:30pm 30.8 34.1 26.0 75 3.4 W 20 24 11 13 1003.0 1002.9 0.0
05/03:00pm 30.4 32.8 26.4 79 2.9 W 26 37 14 20 1003.2 1003.1 0.0
05/02:30pm 31.7 34.7 26.7 75 3.6 NW 24 33 13 18 1003.6 1003.5 0.0
05/02:00pm 31.8 34.7 26.5 73 3.8 NW 24 32 13 17 1003.7 1003.6 0.0
05/01:30pm 31.6 34.9 26.6 75 3.6 NW 22 30 12 16 1003.9 1003.8 0.0
05/01:00pm 31.1 33.8 26.2 75 3.5 NW 24 30 13 16 1004.3 1004.2 0.0
05/12:30pm 31.4 34.6 26.4 75 3.6 NW 22 28 12 15 1004.7 1004.6 0.0
05/12:00pm 31.0 34.3 26.0 74 3.6 NW 20 26 11 14 1005.0 1004.9 0.0
05/11:30am 31.0 33.5 26.0 74 3.6 NW 24 30 13 16 1005.3 1005.2 0.0
05/11:00am 31.2 34.1 25.9 73 3.8 NW 22 30 12 16 1005.5 1005.4 0.0
05/10:30am 31.2 33.9 25.7 72 3.9 NW 22 28 12 15 1005.7 1005.6 0.0
05/10:00am 31.4 34.6 26.4 75 3.6 NW 22 28 12 15 1005.6 1005.5 0.0
05/09:30am 31.4 34.6 25.9 72 3.9 NW 20 28 11 15 1005.8 1005.7 0.0
05/09:00am 30.5 32.2 25.9 76 3.3 WNW 28 35 15 19 1005.6 1005.5 0.0
05/08:30am 30.3 33.4 25.7 76 3.3 NW 20 32 11 17 1005.4 1005.3 0.0
05/08:00am 30.4 33.8 25.8 76 3.3 NW 19 24 10 13 1005.6 1005.5 0.0
05/07:30am 30.2 33.1 26.0 78 3.0 NW 22 28 12 15 1005.1 1005.0 0.0
05/07:00am 30.1 32.6 26.0 78 2.9 NW 24 30 13 16 1004.8 1004.7 0.0
05/06:30am 29.7 32.3 26.1 81 2.6 NW 24 32 13 17 1004.5 1004.4 0.0
05/06:00am 29.6 31.2 25.8 80 2.7 NW 28 35 15 19 1003.9 1003.8 0.0
05/05:30am 29.6 31.8 26.1 81 2.5 NW 26 33 14 18 1003.5 1003.4 0.0
05/05:00am 29.6 31.7 25.9 80 2.6 NW 26 32 14 17 1003.5 1003.4 0.0
05/04:30am 29.6 31.6 25.7 79 2.8 NW 26 33 14 18 1003.2 1003.1 0.0
05/04:00am 29.5 31.7 26.1 82 2.4 NW 26 35 14 19 1002.8 1002.7 0.0
05/03:30am 29.5 33.2 26.6 84 2.1 NNW 20 26 11 14 1002.7 1002.6 0.0
05/03:00am 29.5 32.8 26.6 84 2.1 NW 22 28 12 15 1002.7 1002.6 0.0
05/02:30am 29.4 33.2 26.8 86 1.9 NNW 20 24 11 13 1003.2 1003.1 0.0
05/02:00am 29.5 34.0 26.9 86 1.9 NNW 17 20 9 11 1003.5 1003.4 0.0
05/01:30am 29.5 33.3 26.7 85 2.0 NNW 20 24 11 13 1003.9 1003.8 0.0
05/01:00am 29.4 33.9 27.0 87 1.7 NNW 17 20 9 11 1004.3 1004.2 0.0
05/12:30am 29.6 33.4 26.5 83 2.2 NW 19 24 10 13 1004.6 1004.5 0.0
05/12:00am 29.5 33.4 26.9 86 1.9 NW 20 24 11 13 1005.3 1005.2 0.0
 
Date/Time
EST
Temp
°C
App
Temp
°C
Dew
Point
Rel
Hum
%
Delta-T
°C
Wind Press
QNH
hPa
Press
MSL
hPa
Rain
since 9 am
mm
Dir
 
Spd
km/h
Gust
km/h
Spd
kts
Gust
kts
04/11:30pm 29.6 33.4 26.7 84 2.1 NW 20 26 11 14 1005.7 1005.6 0.0
04/11:00pm 29.7 33.4 27.1 86 1.9 NW 22 30 12 16 1005.9 1005.8 0.0
04/10:30pm 29.7 32.8 26.8 84 2.1 WNW 24 28 13 15 1005.9 1005.8 0.0
04/10:00pm 29.6 32.2 26.7 84 2.1 WNW 26 32 14 17 1006.2 1006.1 0.0
04/09:30pm 29.7 32.4 26.8 84 2.1 WNW 26 32 14 17 1006.1 1006.0 0.0
04/09:00pm 29.6 32.1 25.9 80 2.6 NW 24 30 13 16 1005.9 1005.8 0.0
04/08:30pm 29.5 32.5 26.7 85 2.0 NNW 24 30 13 16 1005.4 1005.3 0.0
04/08:00pm 29.1 31.4 26.2 84 2.1 NW 26 33 14 18 1004.9 1004.8 0.0
04/07:30pm 29.0 31.6 26.1 84 2.1 NW 24 30 13 16 1004.6 1004.5 0.0
04/07:00pm 28.9 32.1 26.4 86 1.8 NW 22 28 12 15 1004.7 1004.6 0.0
04/06:30pm 28.6 31.6 26.1 86 1.8 WNW 22 32 12 17 1004.8 1004.7 0.0
04/06:00pm 30.0 33.7 27.1 84 2.1 NNW 22 26 12 14 1004.7 1004.6 0.0
04/05:30pm 30.2 34.5 27.2 84 2.2 NNW 19 24 10 13 1004.5 1004.4 0.0
04/05:00pm 30.6 33.3 26.3 78 3.1 NW 24 30 13 16 1004.5 1004.4 0.0
04/04:30pm 30.3 34.1 26.7 81 2.6 NNW 20 24 11 13 1004.3 1004.2 0.0
04/04:00pm 30.5 34.0 26.9 81 2.6 N 22 26 12 14 1004.3 1004.2 0.0
04/03:30pm 31.7 35.4 26.6 74 3.7 NW 20 26 11 14 1004.3 1004.2 0.0
04/03:00pm 32.0 35.5 26.3 72 4.1 NNW 20 26 11 14 1004.4 1004.3 0.0
04/02:30pm 31.1 33.8 26.8 78 3.1 N 26 30 14 16 1004.9 1004.8 0.0
04/02:00pm 33.3 35.7 25.8 65 5.4 WNW 24 32 13 17 1005.0 1004.9 0.0
04/01:30pm 31.5 34.8 26.0 72 3.9 NW 20 33 11 18 1005.5 1005.4 0.0
04/01:00pm 31.1 35.1 26.7 77 3.2 NW 19 26 10 14 1006.0 1005.9 0.0
04/12:30pm 32.4 35.9 26.3 70 4.4 NW 20 24 11 13 1006.3 1006.2 0.0
04/12:00pm 31.4 34.8 26.2 74 3.7 NW 20 26 11 14 1006.3 1006.2 0.0
04/11:30am 32.2 35.4 25.9 69 4.5 NW 20 26 11 14 1006.6 1006.5 0.0
04/11:00am 31.1 33.0 26.2 75 3.5 NW 28 32 15 17 1006.7 1006.6 0.0
04/10:30am 31.8 34.6 26.4 73 3.9 NNW 24 28 13 15 1006.9 1006.8 0.0
04/10:00am 31.3 33.7 25.8 72 3.9 NNW 24 30 13 16 1007.0 1006.9 0.0

Other Formats:

Comma delimited format used in spreadsheet applications
http://www.bom.gov.au/fwo/IDQ60801/IDQ60801.94299.axf

JavaScript Object Notation format (JSON) in row-major order
http://www.bom.gov.au/fwo/IDQ60801/IDQ60801.94299.json